Miami, New Mexico
Current Conditions -  °F | °C
As of 6:35 PM on Wednesday 22 Oct 2014 (Local Time) from KAXX Reporting Station
Overcast Overcast  
Wind Chill: 48°   Ceiling: 9000
Heat Index: 48°   Visibility: 10mi
Dew Point: 34°   Wind: 3mph
Humidity: 59%   Direction: 270°W
Pressure: 30.28"   Gusts: NA
Location:  36.35°N, 104.8°W
Report Text: KAXX 230035Z AUTO 27003KT 10SM SCT065 OVC090 09/01 A3028 RMK AO2 T00880011
Loading
Personal Weather Stations






























Interactive Weather Map
Tropical Storm Tracking
New forecast layout! Learn more

10-Day Weather Forecast

Advertisements
Track Severe Weather on mobile